Time;durP1;ratioP1;P1;durP2;ratioP2;P2;SDS_P1;SDS_P2;PMS_P1;PMS_P2;Temp;Humidity;BMP_temperature;BMP_pressure;BME280_temperature;BME280_humidity;BME280_pressure;Samples;Min_cycle;Max_cycle;Signal;HPM_P1;HPM_P2
2023/09/09 00:01:56;;;;;;;1.13;0.73;;;;;;;;;;5021635;28;20137;-77
2023/09/09 00:04:22;;;;;;;1.83;0.90;;;;;;;;;;5006480;28;20091;-77
2023/09/09 00:06:48;;;;;;;1.13;0.98;;;;;;;;;;5005361;28;20034;-77
2023/09/09 00:09:15;;;;;;;1.63;0.80;;;;;;;;;;5021016;28;20594;-77
2023/09/09 00:11:41;;;;;;;2.85;0.82;;;;;;;;;;5006724;28;20040;-77
2023/09/09 00:14:07;;;;;;;1.08;0.73;;;;;;;;;;5007309;28;20129;-77
2023/09/09 00:16:34;;;;;;;0.88;0.77;;;;;;;;;;5004846;28;20084;-77
2023/09/09 00:19:01;;;;;;;0.60;0.50;;;;;;;;;;5006794;28;20034;-77
2023/09/09 00:21:27;;;;;;;1.58;0.80;;;;;;;;;;5006311;28;20056;-76
2023/09/09 00:23:53;;;;;;;1.85;0.77;;;;;;;;;;5005488;28;20088;-76
2023/09/09 00:26:20;;;;;;;0.85;0.70;;;;;;;;;;5009642;28;20029;-77
2023/09/09 00:28:46;;;;;;;0.68;0.68;;;;;;;;;;5009154;28;20038;-76
2023/09/09 00:31:13;;;;;;;0.60;0.60;;;;;;;;;;4992577;28;20061;-76
2023/09/09 00:33:40;;;;;;;0.60;0.60;;;;;;;;;;4992814;28;20567;-76
2023/09/09 00:36:06;;;;;;;1.25;0.60;;;;;;;;;;5025347;28;20070;-77
2023/09/09 00:38:32;;;;;;;0.65;0.65;;;;;;;;;;4991988;28;20599;-76
2023/09/09 00:41:18;;;;;;;1.05;0.60;;;;;;;;;;5025499;28;20032;-77
2023/09/09 00:43:47;;;;;;;1.05;0.80;;;;;;;;;;5025353;28;20084;-76
2023/09/09 00:46:16;;;;;;;1.50;0.90;;;;;;;;;;5008979;28;20123;-76
2023/09/09 00:48:42;;;;;;;2.42;1.10;;;;;;;;;;4992140;28;20523;-76
2023/09/09 00:51:11;;;;;;;1.10;1.00;;;;;;;;;;5008379;28;20045;-76
2023/09/09 00:53:37;;;;;;;2.03;0.90;;;;;;;;;;5008499;28;20050;-76
2023/09/09 00:56:04;;;;;;;1.15;0.82;;;;;;;;;;5008755;28;20038;-76
2023/09/09 00:58:31;;;;;;;2.45;0.90;;;;;;;;;;5020132;28;20053;-76
2023/09/09 01:00:57;;;;;;;0.80;0.80;;;;;;;;;;5008518;28;20034;-76
2023/09/09 01:03:24;;;;;;;0.80;0.80;;;;;;;;;;5024865;28;20523;-75
2023/09/09 01:05:50;;;;;;;1.15;0.70;;;;;;;;;;5023912;28;20091;-76
2023/09/09 01:08:30;;;;;;;0.95;0.80;;;;;;;;;;5010335;28;20041;-76
2023/09/09 01:10:57;;;;;;;0.70;0.70;;;;;;;;;;5008084;28;20053;-79
2023/09/09 01:13:23;;;;;;;1.42;0.90;;;;;;;;;;5009090;28;20497;-78
2023/09/09 01:15:50;;;;;;;0.73;0.73;;;;;;;;;;5009592;28;20030;-78
2023/09/09 01:18:17;;;;;;;1.48;0.88;;;;;;;;;;5024484;28;20500;-78
2023/09/09 01:20:45;;;;;;;0.70;0.70;;;;;;;;;;5008598;28;20038;-78
2023/09/09 01:23:12;;;;;;;2.38;0.80;;;;;;;;;;4987573;28;20124;-76
2023/09/09 01:25:38;;;;;;;3.42;0.80;;;;;;;;;;5024635;28;20042;-76
2023/09/09 01:28:04;;;;;;;1.08;0.88;;;;;;;;;;5024425;28;20038;-76
2023/09/09 01:30:31;;;;;;;0.68;0.63;;;;;;;;;;5007535;28;20425;-77
2023/09/09 01:32:58;;;;;;;1.10;0.73;;;;;;;;;;5024330;28;20794;-76
2023/09/09 01:35:24;;;;;;;1.35;0.68;;;;;;;;;;5009905;28;20030;-76
2023/09/09 01:37:50;;;;;;;1.75;0.80;;;;;;;;;;4990720;28;20619;-76
2023/09/09 01:40:17;;;;;;;1.23;0.85;;;;;;;;;;5024158;28;20034;-76
2023/09/09 01:42:44;;;;;;;1.90;0.82;;;;;;;;;;5007892;28;20078;-76
2023/09/09 01:45:12;;;;;;;2.47;0.80;;;;;;;;;;5009331;28;20030;-76
2023/09/09 01:47:39;;;;;;;1.42;0.80;;;;;;;;;;5024238;28;20734;-76
2023/09/09 01:50:05;;;;;;;1.05;0.95;;;;;;;;;;5024545;28;20113;-76
2023/09/09 01:52:31;;;;;;;2.08;1.00;;;;;;;;;;5023850;28;20173;-77
2023/09/09 01:54:58;;;;;;;2.35;0.93;;;;;;;;;;5007351;28;20045;-75
2023/09/09 01:57:26;;;;;;;2.25;1.08;;;;;;;;;;5007814;28;20539;-77
2023/09/09 01:59:54;;;;;;;1.88;0.93;;;;;;;;;;5023958;28;20632;-76
2023/09/09 02:02:20;;;;;;;1.38;0.63;;;;;;;;;;4991083;28;20076;-76
2023/09/09 02:04:46;;;;;;;1.38;0.60;;;;;;;;;;5008661;28;20038;-75
2023/09/09 02:07:12;;;;;;;1.30;0.80;;;;;;;;;;5008608;28;20030;-76
2023/09/09 02:09:39;;;;;;;0.60;0.60;;;;;;;;;;5023616;28;20041;-77
2023/09/09 02:12:05;;;;;;;2.15;0.80;;;;;;;;;;5023743;28;20038;-76
2023/09/09 02:14:33;;;;;;;5.97;0.82;;;;;;;;;;5023342;28;20072;-77
2023/09/09 02:17:00;;;;;;;1.27;0.88;;;;;;;;;;5023611;28;20492;-76
2023/09/09 02:19:27;;;;;;;0.85;0.70;;;;;;;;;;5008382;28;20484;-77
2023/09/09 02:21:53;;;;;;;2.63;0.90;;;;;;;;;;5023206;28;20045;-76
2023/09/09 02:24:20;;;;;;;0.70;0.63;;;;;;;;;;5022434;28;20034;-76
2023/09/09 02:26:46;;;;;;;2.25;0.80;;;;;;;;;;5022926;28;20037;-75
2023/09/09 02:29:12;;;;;;;1.20;0.85;;;;;;;;;;5007170;28;20307;-76
2023/09/09 02:31:39;;;;;;;1.27;0.60;;;;;;;;;;5006449;28;20038;-76
2023/09/09 02:34:05;;;;;;;1.35;0.73;;;;;;;;;;5023366;28;20030;-78
2023/09/09 02:36:32;;;;;;;1.02;0.70;;;;;;;;;;5008122;28;20157;-77
2023/09/09 02:38:58;;;;;;;0.80;0.73;;;;;;;;;;5023190;28;20563;-77
2023/09/09 02:41:25;;;;;;;0.70;0.70;;;;;;;;;;5023633;28;20412;-77
2023/09/09 02:43:51;;;;;;;1.95;0.80;;;;;;;;;;5006416;28;20049;-77
2023/09/09 02:46:17;;;;;;;1.35;0.70;;;;;;;;;;5006559;28;20385;-77
2023/09/09 02:48:44;;;;;;;2.00;1.00;;;;;;;;;;5006625;28;20035;-77
2023/09/09 02:51:10;;;;;;;0.82;0.70;;;;;;;;;;5006174;28;20127;-77
2023/09/09 02:53:36;;;;;;;0.75;0.75;;;;;;;;;;5006040;28;20049;-77
2023/09/09 02:56:02;;;;;;;1.00;0.73;;;;;;;;;;5023394;28;20037;-77
2023/09/09 02:58:29;;;;;;;1.42;0.70;;;;;;;;;;5006073;28;20169;-78
2023/09/09 03:01:03;;;;;;;1.48;0.75;;;;;;;;;;5007646;28;20045;-77
2023/09/09 03:03:31;;;;;;;2.28;0.80;;;;;;;;;;5005829;28;20064;-76
2023/09/09 03:05:58;;;;;;;0.75;0.70;;;;;;;;;;5006648;28;20091;-76
2023/09/09 03:08:24;;;;;;;1.55;0.90;;;;;;;;;;5006896;28;20103;-76
2023/09/09 03:10:52;;;;;;;2.78;0.75;;;;;;;;;;4973522;28;20713;-76
2023/09/09 03:13:19;;;;;;;1.17;0.70;;;;;;;;;;5022544;28;20095;-77
2023/09/09 03:15:45;;;;;;;1.30;0.80;;;;;;;;;;5022359;28;20056;-77
2023/09/09 03:18:11;;;;;;;1.65;0.80;;;;;;;;;;5007281;28;20440;-76
2023/09/09 03:20:38;;;;;;;0.88;0.60;;;;;;;;;;5005985;28;20026;-76
2023/09/09 03:23:04;;;;;;;0.75;0.75;;;;;;;;;;5006354;28;20531;-76
2023/09/09 03:25:31;;;;;;;1.25;0.75;;;;;;;;;;5021771;28;20074;-76
2023/09/09 03:27:57;;;;;;;1.80;0.85;;;;;;;;;;5007268;28;20420;-76
2023/09/09 03:30:23;;;;;;;0.55;0.55;;;;;;;;;;5022161;28;20038;-76
2023/09/09 03:32:50;;;;;;;0.70;0.60;;;;;;;;;;5005182;28;20044;-76
2023/09/09 03:35:17;;;;;;;1.30;0.70;;;;;;;;;;5007684;28;20164;-78
2023/09/09 03:37:43;;;;;;;1.02;0.80;;;;;;;;;;5005475;28;20400;-77
2023/09/09 03:40:10;;;;;;;1.70;0.80;;;;;;;;;;5021142;28;20041;-76
2023/09/09 03:42:38;;;;;;;0.88;0.88;;;;;;;;;;5004933;28;20537;-76
2023/09/09 03:45:06;;;;;;;0.77;0.77;;;;;;;;;;4989129;28;20129;-78
2023/09/09 03:47:32;;;;;;;2.28;0.90;;;;;;;;;;5017249;28;20181;-76
2023/09/09 03:49:59;;;;;;;1.77;0.70;;;;;;;;;;5021595;28;20037;-76
2023/09/09 03:52:26;;;;;;;0.75;0.70;;;;;;;;;;4973151;28;20048;-76
2023/09/09 03:54:52;;;;;;;2.55;0.90;;;;;;;;;;5021381;28;20474;-76
2023/09/09 03:57:19;;;;;;;1.40;0.80;;;;;;;;;;5005508;28;20049;-76
2023/09/09 03:59:47;;;;;;;1.33;0.82;;;;;;;;;;5021212;28;20037;-77
2023/09/09 04:02:13;;;;;;;0.90;0.90;;;;;;;;;;5004914;28;20057;-76
2023/09/09 04:04:40;;;;;;;1.77;0.90;;;;;;;;;;5000511;28;20042;-75
2023/09/09 04:07:06;;;;;;;1.77;1.00;;;;;;;;;;5021630;28;20083;-75
2023/09/09 04:09:40;;;;;;;1.20;0.82;;;;;;;;;;5020896;28;20034;-76
2023/09/09 04:12:08;;;;;;;1.15;0.90;;;;;;;;;;5001676;28;20174;-75
2023/09/09 04:14:35;;;;;;;1.10;0.82;;;;;;;;;;5005784;28;20042;-76
2023/09/09 04:17:02;;;;;;;0.70;0.70;;;;;;;;;;5021396;28;20061;-77
2023/09/09 04:19:28;;;;;;;1.95;0.98;;;;;;;;;;4988124;28;20038;-75
2023/09/09 04:21:55;;;;;;;1.23;1.08;;;;;;;;;;5004913;28;20115;-75
2023/09/09 04:24:21;;;;;;;0.82;0.70;;;;;;;;;;5021291;28;20041;-76
2023/09/09 04:26:47;;;;;;;0.95;0.85;;;;;;;;;;5021057;28;20045;-75
2023/09/09 04:29:13;;;;;;;1.17;0.88;;;;;;;;;;5021707;28;20025;-76
2023/09/09 04:31:40;;;;;;;0.75;0.75;;;;;;;;;;5000812;28;20034;-76
2023/09/09 04:34:06;;;;;;;0.90;0.70;;;;;;;;;;4988489;28;20479;-76
2023/09/09 04:36:32;;;;;;;1.60;0.77;;;;;;;;;;4984407;28;20075;-75
2023/09/09 04:38:59;;;;;;;0.75;0.68;;;;;;;;;;5021143;28;20034;-76
2023/09/09 04:41:25;;;;;;;1.60;0.90;;;;;;;;;;5006789;28;20033;-75
2023/09/09 04:43:51;;;;;;;2.08;0.82;;;;;;;;;;5006438;28;20639;-75
2023/09/09 04:46:17;;;;;;;1.58;0.70;;;;;;;;;;5006348;28;20400;-76
2023/09/09 04:48:44;;;;;;;2.15;0.75;;;;;;;;;;5004301;28;20116;-77
2023/09/09 04:51:10;;;;;;;0.98;0.70;;;;;;;;;;5004818;28;20507;-75
2023/09/09 04:53:36;;;;;;;0.52;0.52;;;;;;;;;;5004512;28;20069;-76
2023/09/09 04:56:03;;;;;;;1.55;0.70;;;;;;;;;;5006677;28;20076;-76
2023/09/09 04:58:30;;;;;;;1.33;0.85;;;;;;;;;;5020720;28;20075;-75
2023/09/09 05:00:56;;;;;;;2.05;1.02;;;;;;;;;;4988360;28;20072;-76
2023/09/09 05:03:23;;;;;;;3.50;0.90;;;;;;;;;;5004621;28;20243;-76
2023/09/09 05:05:49;;;;;;;1.45;0.80;;;;;;;;;;5036750;28;20034;-75
2023/09/09 05:08:15;;;;;;;1.40;0.80;;;;;;;;;;5004806;28;20038;-76
2023/09/09 05:10:42;;;;;;;0.80;0.70;;;;;;;;;;5021265;28;20034;-76
2023/09/09 05:13:08;;;;;;;0.93;0.60;;;;;;;;;;5021780;28;20045;-76
2023/09/09 05:15:35;;;;;;;0.57;0.57;;;;;;;;;;5009673;28;20119;-74
2023/09/09 05:18:02;;;;;;;1.58;0.73;;;;;;;;;;5007566;28;20480;-75
2023/09/09 05:20:28;;;;;;;1.50;0.52;;;;;;;;;;5008041;28;20045;-75
2023/09/09 05:22:55;;;;;;;0.60;0.60;;;;;;;;;;5007544;28;20464;-76
2023/09/09 05:25:21;;;;;;;1.13;0.70;;;;;;;;;;5007799;28;20030;-76
2023/09/09 05:27:48;;;;;;;0.90;0.50;;;;;;;;;;5007466;28;20037;-75
2023/09/09 05:30:14;;;;;;;0.63;0.40;;;;;;;;;;5008226;28;20120;-76
2023/09/09 05:32:41;;;;;;;1.35;0.63;;;;;;;;;;5022862;28;20789;-76
2023/09/09 05:35:10;;;;;;;1.98;0.55;;;;;;;;;;5023998;28;20049;-76
2023/09/09 05:37:37;;;;;;;0.73;0.50;;;;;;;;;;5007590;28;20030;-76
2023/09/09 05:40:03;;;;;;;1.15;0.47;;;;;;;;;;5023925;28;20077;-76
2023/09/09 05:42:30;;;;;;;0.50;0.50;;;;;;;;;;5007438;28;20416;-75
2023/09/09 05:44:56;;;;;;;0.40;0.40;;;;;;;;;;5007595;28;20250;-75
2023/09/09 05:47:23;;;;;;;0.40;0.40;;;;;;;;;;5007859;28;20034;-77
2023/09/09 05:49:49;;;;;;;0.40;0.40;;;;;;;;;;5006317;28;20520;-75
2023/09/09 05:52:16;;;;;;;0.65;0.40;;;;;;;;;;5006842;28;20137;-75
2023/09/09 05:54:42;;;;;;;0.77;0.43;;;;;;;;;;5040047;28;20609;-76
2023/09/09 05:57:09;;;;;;;0.35;0.30;;;;;;;;;;5007218;28;20386;-77
2023/09/09 05:59:35;;;;;;;3.63;0.60;;;;;;;;;;5023471;28;20117;-76
2023/09/09 06:02:03;;;;;;;1.17;0.50;;;;;;;;;;5007372;28;20033;-76
2023/09/09 06:04:29;;;;;;;0.77;0.50;;;;;;;;;;5006831;28;20117;-76
2023/09/09 06:06:56;;;;;;;2.25;0.75;;;;;;;;;;5006863;28;20037;-77
2023/09/09 06:09:23;;;;;;;2.25;0.68;;;;;;;;;;5006622;28;20034;-76
2023/09/09 06:11:50;;;;;;;0.80;0.80;;;;;;;;;;5007966;28;20030;-76
2023/09/09 06:14:17;;;;;;;1.23;0.88;;;;;;;;;;5039898;28;20060;-76
2023/09/09 06:16:44;;;;;;;0.80;0.80;;;;;;;;;;5008335;28;20080;-77
2023/09/09 06:19:10;;;;;;;1.13;0.77;;;;;;;;;;5022934;28;20030;-77
2023/09/09 06:21:36;;;;;;;2.83;0.60;;;;;;;;;;5006502;28;20034;-82
2023/09/09 06:24:03;;;;;;;1.13;1.02;;;;;;;;;;5006986;28;20121;-79
2023/09/09 06:26:33;;;;;;;0.70;0.70;;;;;;;;;;5007025;28;20033;-81
2023/09/09 06:28:59;;;;;;;0.63;0.63;;;;;;;;;;4975659;28;20033;-78
2023/09/09 06:31:25;;;;;;;0.93;0.63;;;;;;;;;;5008352;28;20034;-78
2023/09/09 06:33:52;;;;;;;0.60;0.60;;;;;;;;;;5022522;28;20042;-79
2023/09/09 06:36:20;;;;;;;0.82;0.70;;;;;;;;;;5008438;28;20030;-81
2023/09/09 06:38:46;;;;;;;1.52;0.77;;;;;;;;;;5022941;28;20034;-81
2023/09/09 06:41:13;;;;;;;1.67;0.80;;;;;;;;;;5017976;28;20033;-79
2023/09/09 06:43:39;;;;;;;0.70;0.70;;;;;;;;;;5007658;28;20038;-80
2023/09/09 06:46:05;;;;;;;0.95;0.80;;;;;;;;;;4989547;28;20085;-78
2023/09/09 06:48:32;;;;;;;0.50;0.50;;;;;;;;;;5022447;28;20038;-79
2023/09/09 06:50:58;;;;;;;0.70;0.70;;;;;;;;;;5007776;28;20042;-81
2023/09/09 06:53:25;;;;;;;0.68;0.68;;;;;;;;;;5022610;28;20058;-79
2023/09/09 06:55:51;;;;;;;0.60;0.60;;;;;;;;;;5022392;28;20043;-80
2023/09/09 06:58:18;;;;;;;1.48;0.60;;;;;;;;;;5001937;28;20121;-78
2023/09/09 07:00:53;;;;;;;0.52;0.50;;;;;;;;;;5007416;28;20045;-79
2023/09/09 07:03:20;;;;;;;0.88;0.60;;;;;;;;;;5017231;28;20038;-76
2023/09/09 07:05:46;;;;;;;0.47;0.43;;;;;;;;;;5007125;28;20458;-76
2023/09/09 07:08:12;;;;;;;0.60;0.60;;;;;;;;;;5006412;28;20413;-77
2023/09/09 07:10:39;;;;;;;0.50;0.50;;;;;;;;;;5007285;28;20044;-76
2023/09/09 07:13:05;;;;;;;0.60;0.40;;;;;;;;;;5038492;28;20069;-77
2023/09/09 07:15:34;;;;;;;0.38;0.38;;;;;;;;;;5006836;28;20732;-78
2023/09/09 07:18:01;;;;;;;1.70;0.50;;;;;;;;;;5038049;28;20060;-80
2023/09/09 07:20:27;;;;;;;0.50;0.50;;;;;;;;;;5006041;28;20034;-79
2023/09/09 07:22:54;;;;;;;1.75;0.65;;;;;;;;;;5008006;28;20041;-78
2023/09/09 07:25:20;;;;;;;0.50;0.50;;;;;;;;;;5006974;28;20491;-78
2023/09/09 07:27:46;;;;;;;1.02;0.50;;;;;;;;;;5005725;28;20053;-80
2023/09/09 07:30:12;;;;;;;0.70;0.60;;;;;;;;;;5006621;28;20041;-79
2023/09/09 07:32:39;;;;;;;2.55;0.55;;;;;;;;;;5005098;28;20030;-79
2023/09/09 07:35:05;;;;;;;1.70;0.50;;;;;;;;;;5006089;28;20034;-77
2023/09/09 07:37:31;;;;;;;1.50;0.60;;;;;;;;;;5006320;28;20029;-79
2023/09/09 07:40:01;;;;;;;0.88;0.65;;;;;;;;;;5006644;28;20034;-79
2023/09/09 07:42:27;;;;;;;0.60;0.60;;;;;;;;;;5037928;28;20034;-79
2023/09/09 07:44:53;;;;;;;0.60;0.60;;;;;;;;;;5000854;28;20457;-79
2023/09/09 07:47:20;;;;;;;0.60;0.60;;;;;;;;;;5006018;28;20120;-80
2023/09/09 07:49:47;;;;;;;1.02;0.55;;;;;;;;;;5005475;28;20041;-79
2023/09/09 07:52:13;;;;;;;0.60;0.52;;;;;;;;;;5015551;28;20425;-80
2023/09/09 07:54:39;;;;;;;1.42;0.60;;;;;;;;;;5006219;28;20049;-80
2023/09/09 07:57:06;;;;;;;3.85;0.60;;;;;;;;;;5006657;28;20042;-80
2023/09/09 07:59:32;;;;;;;1.02;0.68;;;;;;;;;;5005040;28;20171;-83
2023/09/09 08:01:59;;;;;;;0.68;0.60;;;;;;;;;;5022608;28;20386;-84
2023/09/09 08:04:25;;;;;;;1.60;0.60;;;;;;;;;;4988998;28;20041;-85
2023/09/09 08:06:53;;;;;;;2.05;0.60;;;;;;;;;;5020760;28;20046;-86
2023/09/09 08:09:23;;;;;;;1.20;0.60;;;;;;;;;;5006819;28;20230;-83
2023/09/09 08:11:49;;;;;;;0.95;0.60;;;;;;;;;;5022431;28;20084;-81
2023/09/09 08:14:18;;;;;;;2.15;0.60;;;;;;;;;;5006552;28;20048;-86
2023/09/09 08:16:45;;;;;;;2.30;0.75;;;;;;;;;;5006360;28;20045;-83
2023/09/09 08:19:11;;;;;;;1.45;0.70;;;;;;;;;;5020939;28;20512;-83
2023/09/09 08:21:37;;;;;;;2.15;0.68;;;;;;;;;;5005050;28;20555;-81
2023/09/09 08:24:04;;;;;;;0.75;0.60;;;;;;;;;;5005856;28;20487;-83
2023/09/09 08:26:30;;;;;;;0.60;0.40;;;;;;;;;;5037754;28;20034;-85
2023/09/09 08:28:56;;;;;;;3.20;0.90;;;;;;;;;;5006026;28;20030;-81
2023/09/09 08:31:23;;;;;;;0.65;0.60;;;;;;;;;;5006190;28;20038;-84
2023/09/09 08:33:52;;;;;;;0.95;0.60;;;;;;;;;;4996303;28;20034;-80
2023/09/09 08:36:18;;;;;;;1.33;0.70;;;;;;;;;;5003303;28;20038;-78
2023/09/09 08:38:44;;;;;;;1.35;0.98;;;;;;;;;;5021233;28;20519;-79
2023/09/09 08:41:21;;;;;;;2.13;1.02;;;;;;;;;;5006358;28;20061;-79
2023/09/09 08:44:13;;;;;;;2.28;1.20;;;;;;;;;;5003992;28;20144;-80
2023/09/09 08:46:39;;;;;;;3.50;1.63;;;;;;;;;;4968695;28;20710;-80
2023/09/09 08:49:07;;;;;;;6.53;2.30;;;;;;;;;;4987490;28;20070;-79
2023/09/09 08:51:40;;;;;;;4.18;2.20;;;;;;;;;;4968300;28;20117;-81
2023/09/09 08:54:07;;;;;;;4.38;2.53;;;;;;;;;;4954848;28;20575;-82
2023/09/09 08:56:34;;;;;;;6.15;2.83;;;;;;;;;;4967228;28;20038;-82
2023/09/09 08:59:00;;;;;;;5.65;3.00;;;;;;;;;;4987990;28;20030;-83
2023/09/09 09:01:27;;;;;;;6.57;3.38;;;;;;;;;;4987634;28;20121;-85
2023/09/09 09:03:54;;;;;;;9.98;4.00;;;;;;;;;;4983348;28;20085;-86
2023/09/09 09:06:21;;;;;;;12.07;4.40;;;;;;;;;;4988148;28;20121;-84
2023/09/09 09:08:48;;;;;;;9.00;4.68;;;;;;;;;;4987177;28;20121;-83
2023/09/09 09:11:15;;;;;;;9.35;4.50;;;;;;;;;;4987620;28;20039;-83
2023/09/09 09:13:41;;;;;;;8.18;4.68;;;;;;;;;;4971661;28;21261;-81
2023/09/09 09:16:08;;;;;;;8.10;4.25;;;;;;;;;;4987882;28;20031;-84
2023/09/09 09:18:36;;;;;;;8.32;4.70;;;;;;;;;;4988167;28;20121;-83
2023/09/09 09:21:06;;;;;;;9.93;4.30;;;;;;;;;;4986729;28;20038;-82
2023/09/09 09:23:32;;;;;;;5.95;4.25;;;;;;;;;;5005838;28;20042;-81
2023/09/09 09:25:58;;;;;;;8.98;4.53;;;;;;;;;;5009048;28;20033;-83
2023/09/09 09:28:28;;;;;;;8.90;4.15;;;;;;;;;;5009413;28;20034;-85
2023/09/09 09:30:54;;;;;;;9.07;3.97;;;;;;;;;;5009271;28;20049;-83
2023/09/09 09:33:27;;;;;;;6.53;4.07;;;;;;;;;;5023516;28;20088;-86
2023/09/09 09:35:53;;;;;;;10.55;3.58;;;;;;;;;;5026942;28;20038;-87
2023/09/09 09:38:19;;;;;;;7.75;3.55;;;;;;;;;;5025708;28;20034;-82
2023/09/09 09:40:46;;;;;;;7.78;3.20;;;;;;;;;;5041321;28;20030;-83
2023/09/09 09:43:19;;;;;;;6.93;3.22;;;;;;;;;;5007521;28;20037;-83
2023/09/09 09:45:45;;;;;;;5.65;3.30;;;;;;;;;;5007715;28;20108;-81
2023/09/09 09:48:11;;;;;;;6.95;2.72;;;;;;;;;;5007901;28;20746;-83
2023/09/09 09:50:40;;;;;;;6.63;2.72;;;;;;;;;;5007775;28;20129;-80
2023/09/09 09:53:08;;;;;;;4.55;2.75;;;;;;;;;;5007431;28;20496;-79
2023/09/09 09:55:35;;;;;;;3.05;2.30;;;;;;;;;;5003128;28;20408;-79
2023/09/09 09:58:05;;;;;;;5.15;2.60;;;;;;;;;;5007543;28;20034;-80
2023/09/09 10:00:31;;;;;;;6.70;2.33;;;;;;;;;;5023930;28;20045;-82
2023/09/09 10:02:58;;;;;;;7.07;2.47;;;;;;;;;;5006882;28;20034;-79
2023/09/09 10:05:26;;;;;;;4.82;2.45;;;;;;;;;;5009445;28;20030;-81
2023/09/09 10:07:53;;;;;;;4.75;2.55;;;;;;;;;;5006709;28;20050;-79
2023/09/09 10:10:22;;;;;;;5.15;2.22;;;;;;;;;;5006504;28;20045;-80
2023/09/09 10:12:49;;;;;;;5.05;2.78;;;;;;;;;;5007790;28;20521;-79
2023/09/09 10:15:16;;;;;;;3.85;2.10;;;;;;;;;;5007829;28;20050;-80
2023/09/09 10:17:44;;;;;;;6.10;2.08;;;;;;;;;;4989676;28;20030;-80
2023/09/09 10:20:11;;;;;;;4.60;2.08;;;;;;;;;;5039853;28;20056;-80
2023/09/09 10:22:37;;;;;;;5.10;1.92;;;;;;;;;;5006496;28;20085;-81
2023/09/09 10:25:10;;;;;;;6.10;2.22;;;;;;;;;;5008398;28;20033;-81
2023/09/09 10:27:38;;;;;;;4.05;1.98;;;;;;;;;;5017960;28;20064;-82
2023/09/09 10:30:05;;;;;;;4.38;1.80;;;;;;;;;;5007728;28;20045;-80
2023/09/09 10:32:34;;;;;;;4.63;1.92;;;;;;;;;;5022711;28;20030;-80
2023/09/09 10:35:00;;;;;;;4.80;2.00;;;;;;;;;;5023612;28;20064;-80
2023/09/09 10:37:27;;;;;;;3.22;1.95;;;;;;;;;;5007791;28;20026;-80
2023/09/09 10:39:53;;;;;;;4.20;1.95;;;;;;;;;;5006410;28;20029;-80
2023/09/09 10:42:20;;;;;;;3.33;2.00;;;;;;;;;;4990271;28;20041;-80
2023/09/09 10:44:49;;;;;;;2.67;1.90;;;;;;;;;;5022836;28;20427;-81
2023/09/09 10:47:16;;;;;;;4.10;1.90;;;;;;;;;;4992034;28;20042;-81
2023/09/09 10:49:42;;;;;;;2.80;1.55;;;;;;;;;;5022079;28;20500;-81
2023/09/09 10:52:29;;;;;;;2.42;1.80;;;;;;;;;;5005671;28;20054;-80
2023/09/09 10:55:10;;;;;;;3.72;1.90;;;;;;;;;;5022420;28;20046;-80
2023/09/09 10:57:36;;;;;;;2.80;1.70;;;;;;;;;;5007226;28;20516;-80
2023/09/09 11:00:06;;;;;;;2.47;1.58;;;;;;;;;;5022551;28;20042;-80
2023/09/09 11:02:43;;;;;;;1.95;1.63;;;;;;;;;;5022067;28;20034;-80
2023/09/09 11:05:11;;;;;;;4.47;1.67;;;;;;;;;;5003502;28;20030;-80
2023/09/09 11:07:42;;;;;;;3.13;1.88;;;;;;;;;;5003136;28;20058;-79
2023/09/09 11:10:08;;;;;;;2.50;1.67;;;;;;;;;;5037735;28;20431;-80
2023/09/09 11:12:35;;;;;;;3.15;1.85;;;;;;;;;;5017434;28;20428;-79
2023/09/09 11:15:11;;;;;;;5.35;2.28;;;;;;;;;;5005606;28;20034;-79
2023/09/09 11:17:40;;;;;;;2.83;1.90;;;;;;;;;;5007018;28;20133;-80
2023/09/09 11:20:10;;;;;;;3.20;1.80;;;;;;;;;;5007674;28;20554;-79
2023/09/09 11:22:37;;;;;;;3.17;1.77;;;;;;;;;;5001762;28;20401;-80
2023/09/09 11:25:03;;;;;;;3.70;2.03;;;;;;;;;;5007284;28;20061;-80
2023/09/09 11:27:30;;;;;;;2.60;1.42;;;;;;;;;;5005787;28;20042;-79
2023/09/09 11:29:56;;;;;;;2.08;1.60;;;;;;;;;;5005454;28;20487;-80
2023/09/09 11:32:26;;;;;;;2.75;1.60;;;;;;;;;;5006604;28;20073;-80
2023/09/09 11:34:56;;;;;;;2.95;1.50;;;;;;;;;;5005265;28;20424;-80
2023/09/09 11:37:26;;;;;;;1.73;1.50;;;;;;;;;;5005422;28;20045;-80
2023/09/09 11:39:53;;;;;;;5.15;1.65;;;;;;;;;;5021649;28;20069;-80
2023/09/09 11:42:20;;;;;;;3.00;1.52;;;;;;;;;;5037729;28;20496;-81
2023/09/09 11:44:46;;;;;;;2.53;1.38;;;;;;;;;;5005009;28;20030;-79
2023/09/09 11:47:14;;;;;;;2.28;1.63;;;;;;;;;;5006663;28;20540;-79
2023/09/09 11:49:43;;;;;;;2.67;2.17;;;;;;;;;;5021813;28;20370;-79
2023/09/09 11:52:09;;;;;;;2.70;1.65;;;;;;;;;;4988454;28;20057;-80
2023/09/09 11:54:36;;;;;;;2.30;1.83;;;;;;;;;;5006629;28;20536;-80
2023/09/09 11:57:06;;;;;;;2.53;1.48;;;;;;;;;;5000206;28;20037;-81
2023/09/09 11:59:32;;;;;;;3.22;1.70;;;;;;;;;;5005399;28;20036;-79
2023/09/09 12:01:58;;;;;;;1.65;1.55;;;;;;;;;;5005894;28;20034;-80
2023/09/09 12:04:25;;;;;;;3.28;1.80;;;;;;;;;;5006697;28;20405;-80
2023/09/09 12:06:52;;;;;;;2.22;1.85;;;;;;;;;;5005729;28;20125;-80
2023/09/09 12:09:18;;;;;;;3.45;2.08;;;;;;;;;;4996661;28;20045;-80
2023/09/09 12:11:45;;;;;;;3.70;2.00;;;;;;;;;;5006762;28;20090;-78
2023/09/09 12:14:12;;;;;;;2.78;1.80;;;;;;;;;;5004987;28;20415;-81
2023/09/09 12:16:39;;;;;;;1.90;1.60;;;;;;;;;;5004947;28;20061;-80
2023/09/09 12:19:05;;;;;;;2.53;1.80;;;;;;;;;;5004776;28;20034;-79
2023/09/09 12:21:42;;;;;;;1.73;1.40;;;;;;;;;;4989433;28;20465;-79
2023/09/09 12:24:08;;;;;;;3.25;1.88;;;;;;;;;;5010458;28;20034;-78
2023/09/09 12:26:35;;;;;;;3.78;1.52;;;;;;;;;;5009518;28;20064;-79
2023/09/09 12:29:09;;;;;;;1.70;1.60;;;;;;;;;;5010892;28;20499;-79
2023/09/09 12:31:49;;;;;;;2.63;1.73;;;;;;;;;;5025226;28;20038;-79
2023/09/09 12:34:22;;;;;;;5.22;1.60;;;;;;;;;;4992217;28;20453;-81
2023/09/09 12:36:49;;;;;;;2.08;1.52;;;;;;;;;;5025328;28;20038;-79
2023/09/09 12:39:25;;;;;;;3.15;2.10;;;;;;;;;;5010227;28;20042;-79
2023/09/09 12:41:58;;;;;;;2.35;1.95;;;;;;;;;;5008563;28;20041;-79
2023/09/09 12:44:25;;;;;;;2.17;1.73;;;;;;;;;;5010949;28;20045;-78
2023/09/09 12:46:54;;;;;;;1.88;1.60;;;;;;;;;;5008901;28;20034;-79
2023/09/09 12:49:20;;;;;;;4.20;1.95;;;;;;;;;;5009914;28;20054;-80
2023/09/09 12:51:46;;;;;;;3.33;1.48;;;;;;;;;;5009877;28;20060;-79
2023/09/09 12:54:13;;;;;;;3.08;1.80;;;;;;;;;;5008099;28;20064;-80
2023/09/09 12:56:40;;;;;;;2.70;1.80;;;;;;;;;;5009006;28;20044;-79
2023/09/09 12:59:06;;;;;;;2.10;1.25;;;;;;;;;;5009121;28;20038;-80
2023/09/09 13:01:32;;;;;;;1.67;1.45;;;;;;;;;;5009964;28;20103;-80
2023/09/09 13:03:59;;;;;;;1.70;1.60;;;;;;;;;;5024504;28;20184;-80
2023/09/09 13:06:25;;;;;;;2.40;1.88;;;;;;;;;;5009002;28;20048;-80
2023/09/09 13:08:52;;;;;;;2.22;1.80;;;;;;;;;;5008250;28;20503;-79
2023/09/09 13:11:18;;;;;;;4.18;1.98;;;;;;;;;;5019698;28;20401;-81
2023/09/09 13:13:44;;;;;;;2.25;1.70;;;;;;;;;;5009819;28;20038;-80
2023/09/09 13:16:12;;;;;;;2.67;2.20;;;;;;;;;;5007373;28;20041;-80
2023/09/09 13:18:38;;;;;;;3.88;2.28;;;;;;;;;;5005935;28;20042;-79
2023/09/09 13:21:04;;;;;;;2.72;1.95;;;;;;;;;;5009648;28;20040;-79
2023/09/09 13:23:31;;;;;;;2.30;2.08;;;;;;;;;;5006012;28;20500;-80
2023/09/09 13:25:58;;;;;;;2.15;1.90;;;;;;;;;;5010466;28;20029;-81
2023/09/09 13:28:24;;;;;;;2.80;1.95;;;;;;;;;;5010447;28;20079;-80
2023/09/09 13:30:50;;;;;;;2.00;1.80;;;;;;;;;;5009688;28;20449;-80
2023/09/09 13:33:18;;;;;;;4.90;2.00;;;;;;;;;;5013996;28;20067;-80
2023/09/09 13:35:44;;;;;;;2.28;1.90;;;;;;;;;;5024007;28;20481;-81
2023/09/09 13:38:10;;;;;;;2.60;2.40;;;;;;;;;;5021330;28;20029;-80
2023/09/09 13:40:36;;;;;;;2.90;2.08;;;;;;;;;;5017934;28;20038;-80
2023/09/09 13:43:03;;;;;;;2.20;2.00;;;;;;;;;;5018090;28;20041;-79
2023/09/09 13:45:29;;;;;;;2.83;2.20;;;;;;;;;;5013330;28;20530;-80
2023/09/09 13:47:55;;;;;;;4.10;2.38;;;;;;;;;;5014799;28;20369;-80
2023/09/09 13:50:21;;;;;;;2.22;2.03;;;;;;;;;;5008800;28;20061;-79
2023/09/09 13:52:48;;;;;;;2.20;2.00;;;;;;;;;;5006964;28;20562;-79
2023/09/09 13:55:15;;;;;;;3.08;2.10;;;;;;;;;;5008792;28;20176;-79
2023/09/09 13:57:41;;;;;;;3.75;2.08;;;;;;;;;;5007631;28;20131;-80
2023/09/09 14:00:08;;;;;;;2.40;2.13;;;;;;;;;;5008407;28;20034;-79
2023/09/09 14:02:34;;;;;;;2.40;2.20;;;;;;;;;;5008673;28;20394;-80
2023/09/09 14:05:00;;;;;;;2.33;2.13;;;;;;;;;;5009328;28;20029;-80
2023/09/09 14:07:27;;;;;;;3.53;2.20;;;;;;;;;;5006828;28;20026;-80
2023/09/09 14:09:53;;;;;;;2.50;2.30;;;;;;;;;;5006863;28;20060;-80
2023/09/09 14:12:19;;;;;;;3.75;2.88;;;;;;;;;;5007386;28;20428;-79
2023/09/09 14:14:46;;;;;;;3.10;2.80;;;;;;;;;;5006564;28;20085;-78
2023/09/09 14:17:12;;;;;;;3.28;2.42;;;;;;;;;;5008578;28;20021;-79
2023/09/09 14:19:38;;;;;;;3.60;2.80;;;;;;;;;;5018533;28;20041;-79
2023/09/09 14:22:05;;;;;;;2.80;2.53;;;;;;;;;;5007327;28;20039;-79
2023/09/09 14:24:31;;;;;;;3.90;2.40;;;;;;;;;;5007810;28;20034;-79
2023/09/09 14:26:58;;;;;;;3.55;2.50;;;;;;;;;;5022461;28;20038;-79
2023/09/09 14:29:24;;;;;;;2.70;2.50;;;;;;;;;;4991671;28;20057;-80
2023/09/09 14:31:50;;;;;;;4.53;2.65;;;;;;;;;;5007803;28;20425;-79
2023/09/09 14:34:17;;;;;;;3.08;2.67;;;;;;;;;;5006219;28;20073;-79
2023/09/09 14:36:43;;;;;;;3.15;2.40;;;;;;;;;;5022789;28;20030;-79
2023/09/09 14:39:09;;;;;;;2.45;2.25;;;;;;;;;;5005955;28;20452;-80
2023/09/09 14:41:35;;;;;;;3.85;2.63;;;;;;;;;;5008033;28;20029;-79
2023/09/09 14:44:02;;;;;;;3.15;2.85;;;;;;;;;;5023249;28;20049;-79